Time;durP1;ratioP1;P1;durP2;ratioP2;P2;SDS_P1;SDS_P2;PMS_P1;PMS_P2;Temp;Humidity;BMP_temperature;BMP_pressure;BME280_temperature;BME280_humidity;BME280_pressure;Samples;Min_cycle;Max_cycle;Signal;HPM_P1;HPM_P2
2022/09/03 00:00:13;;;;;;;5.35;2.97;;;;;;;16.66;66.11;95240.03;4989862;28;20307;-79
2022/09/03 00:03:02;;;;;;;4.50;2.75;;;;;;;16.66;66.43;95242.66;4975849;28;20188;-79
2022/09/03 00:05:44;;;;;;;3.53;3.22;;;;;;;16.64;67.08;95238.63;4998018;28;20583;-80
2022/09/03 00:08:17;;;;;;;3.83;3.20;;;;;;;16.70;67.16;95243.13;4981209;28;20227;-79
2022/09/03 00:10:58;;;;;;;3.13;2.90;;;;;;;16.70;67.17;95241.31;4975883;28;20589;-79
2022/09/03 00:13:35;;;;;;;6.80;2.95;;;;;;;16.68;67.67;95235.44;4989147;28;20195;-80
2022/09/03 00:16:08;;;;;;;4.05;3.00;;;;;;;16.62;67.70;95236.19;4974867;28;20211;-80
2022/09/03 00:18:34;;;;;;;4.53;3.00;;;;;;;16.65;67.37;95229.75;4979606;28;20564;-80
2022/09/03 00:21:08;;;;;;;6.40;2.95;;;;;;;16.66;67.56;95232.16;4984261;28;20214;-79
2022/09/03 00:23:38;;;;;;;5.03;3.45;;;;;;;16.68;67.46;95229.34;4973811;28;20222;-79
2022/09/03 00:26:12;;;;;;;3.30;3.10;;;;;;;16.74;67.86;95233.06;4960680;28;20209;-79
2022/09/03 00:28:43;;;;;;;2.95;2.65;;;;;;;16.71;68.17;95226.41;4987899;28;20199;-79
2022/09/03 00:31:32;;;;;;;5.35;3.03;;;;;;;16.72;68.10;95229.81;4989898;28;20665;-80
2022/09/03 00:34:01;;;;;;;6.38;3.70;;;;;;;16.69;68.14;95228.38;4985450;28;20266;-79
2022/09/03 00:36:35;;;;;;;3.50;3.20;;;;;;;16.73;68.46;95229.63;4982832;28;20739;-79
2022/09/03 00:39:00;;;;;;;3.47;3.17;;;;;;;16.73;68.67;95232.25;4971090;28;20262;-79
2022/09/03 00:41:47;;;;;;;5.13;3.55;;;;;;;16.77;68.76;95235.28;4988074;28;20692;-79
2022/09/03 00:44:58;;;;;;;5.93;3.33;;;;;;;16.77;68.71;95222.16;4967343;28;20279;-80
2022/09/03 00:47:39;;;;;;;7.95;3.75;;;;;;;16.77;68.74;95222.16;4928413;29;20210;-80
2022/09/03 00:50:25;;;;;;;5.72;3.30;;;;;;;16.81;68.70;95223.41;4906183;29;20191;-80
2022/09/03 00:53:19;;;;;;;3.60;3.30;;;;;;;16.76;69.14;95225.78;4915943;29;20197;-80
2022/09/03 00:55:55;;;;;;;3.90;3.60;;;;;;;16.74;69.19;95233.06;4932633;29;20221;-80
2022/09/03 00:58:34;;;;;;;4.63;3.35;;;;;;;16.73;69.29;95231.44;4929388;29;20639;-80
2022/09/03 01:01:13;;;;;;;4.00;3.60;;;;;;;16.73;69.42;95229.63;4930971;29;20213;-79
2022/09/03 01:03:50;;;;;;;3.80;3.47;;;;;;;16.73;69.29;95227.00;4912762;29;20198;-79
2022/09/03 01:06:23;;;;;;;3.55;3.25;;;;;;;16.77;69.06;95222.97;4939259;29;20277;-79
2022/09/03 01:09:02;;;;;;;4.45;3.47;;;;;;;16.74;69.16;95226.00;4933492;29;20639;-78
2022/09/03 01:11:44;;;;;;;5.88;3.33;;;;;;;16.67;68.96;95225.09;4899679;29;20262;-78
2022/09/03 01:14:25;;;;;;;4.63;3.67;;;;;;;16.64;68.92;95228.94;4927197;29;20190;-79
2022/09/03 01:17:06;;;;;;;5.43;3.50;;;;;;;16.64;69.01;95230.75;4940843;29;20228;-78
2022/09/03 01:19:35;;;;;;;5.18;3.47;;;;;;;16.60;69.16;95232.94;4908132;29;20193;-79
2022/09/03 01:22:14;;;;;;;3.67;3.38;;;;;;;16.66;68.87;95234.78;4922284;29;20635;-78
2022/09/03 01:25:02;;;;;;;3.97;3.05;;;;;;;16.64;68.85;95228.94;4963745;28;20203;-79
2022/09/03 01:27:38;;;;;;;4.07;3.28;;;;;;;16.55;69.37;95226.66;4988991;28;20206;-79
2022/09/03 01:30:06;;;;;;;4.57;3.38;;;;;;;16.45;70.15;95224.38;4973961;28;20574;-78
2022/09/03 01:33:01;;;;;;;3.70;3.40;;;;;;;16.43;70.09;95223.75;4973133;28;20199;-78
2022/09/03 01:35:37;;;;;;;3.70;3.40;;;;;;;16.41;69.92;95231.00;4987038;28;20181;-79
2022/09/03 01:38:23;;;;;;;3.50;3.30;;;;;;;16.42;70.03;95222.13;4977723;28;20183;-78
2022/09/03 01:42:14;;;;;;;7.15;3.65;;;;;;;16.43;70.32;95235.06;4985496;28;20231;-79
2022/09/03 01:44:24;;;;;;;4.22;3.30;;;;;;;16.45;70.53;95231.44;4987369;28;20271;-79
2022/09/03 01:46:57;;;;;;;3.10;2.90;;;;;;;16.36;70.64;95244.69;4969052;28;20209;-78
2022/09/03 01:49:29;;;;;;;4.20;3.80;;;;;;;16.36;71.05;95236.81;4981467;28;20180;-78
2022/09/03 01:52:06;;;;;;;4.65;3.50;;;;;;;16.20;71.89;95244.16;4984339;28;20184;-78
2022/09/03 01:54:50;;;;;;;4.47;3.58;;;;;;;16.13;72.12;95242.28;4973835;28;20254;-78
2022/09/03 01:57:38;;;;;;;3.70;3.40;;;;;;;16.08;72.66;95247.28;4974853;28;20696;-79
2022/09/03 02:00:11;;;;;;;4.43;3.80;;;;;;;16.01;73.23;95237.75;4976594;28;20208;-79
2022/09/03 02:02:37;;;;;;;4.32;3.83;;;;;;;15.95;73.19;95235.88;4976792;28;20247;-80
2022/09/03 02:05:08;;;;;;;4.63;3.80;;;;;;;15.92;73.23;95244.91;4967405;28;20188;-79
2022/09/03 02:07:47;;;;;;;3.97;3.67;;;;;;;15.87;74.05;95242.03;4964462;28;20610;-80
2022/09/03 02:10:16;;;;;;;4.10;3.75;;;;;;;15.86;73.85;95240.44;4991542;28;20171;-80
2022/09/03 02:12:46;;;;;;;4.32;3.80;;;;;;;15.82;73.88;95239.19;4976811;28;20183;-80
2022/09/03 02:15:14;;;;;;;4.53;3.53;;;;;;;15.73;74.64;95235.09;4972900;28;20187;-79
2022/09/03 02:17:41;;;;;;;8.82;4.38;;;;;;;15.75;74.87;95236.50;4965713;28;20255;-79
2022/09/03 02:20:10;;;;;;;3.70;3.40;;;;;;;15.82;73.90;95245.25;4969028;28;20311;-80
2022/09/03 02:22:36;;;;;;;3.92;3.63;;;;;;;15.80;73.87;95235.94;4988655;28;20195;-79
2022/09/03 02:25:02;;;;;;;4.60;4.03;;;;;;;15.71;74.77;95244.91;4990974;28;20270;-80
2022/09/03 02:27:27;;;;;;;4.03;3.63;;;;;;;15.66;75.01;95242.06;4992569;28;20286;-79
2022/09/03 02:29:52;;;;;;;3.92;3.50;;;;;;;15.70;74.80;95235.44;4992813;28;20203;-80
2022/09/03 02:32:18;;;;;;;5.57;3.67;;;;;;;15.66;74.83;95235.00;4985616;28;20206;-79
2022/09/03 02:34:43;;;;;;;5.60;3.63;;;;;;;15.61;75.43;95232.13;4982614;28;20227;-79
2022/09/03 02:37:13;;;;;;;4.25;3.58;;;;;;;15.57;75.81;95236.09;4979628;28;20298;-79
2022/09/03 02:39:40;;;;;;;3.75;3.45;;;;;;;15.59;75.58;95240.13;4960039;28;20219;-79
2022/09/03 02:42:05;;;;;;;3.50;3.20;;;;;;;15.61;75.41;95245.22;4960054;28;20192;-80
2022/09/03 02:44:32;;;;;;;3.70;3.42;;;;;;;15.63;75.57;95234.56;4978590;28;20185;-80
2022/09/03 02:47:02;;;;;;;4.07;3.72;;;;;;;15.66;75.77;95231.59;4976042;28;20267;-80
2022/09/03 02:49:28;;;;;;;4.28;3.45;;;;;;;15.63;76.33;95227.50;4985194;28;20210;-80
2022/09/03 02:52:08;;;;;;;3.95;3.53;;;;;;;15.68;76.17;95242.66;4972703;28;20187;-80
2022/09/03 02:54:40;;;;;;;3.80;3.42;;;;;;;15.69;76.03;95244.28;4991505;28;20248;-80
2022/09/03 02:57:11;;;;;;;4.80;3.55;;;;;;;15.72;75.92;95243.91;4975638;28;20591;-80
2022/09/03 02:59:38;;;;;;;4.30;3.58;;;;;;;15.77;75.43;95244.16;4987920;28;20184;-80
2022/09/03 03:02:04;;;;;;;3.70;3.30;;;;;;;15.78;74.70;95248.41;4969125;28;20242;-80
2022/09/03 03:04:29;;;;;;;3.47;3.17;;;;;;;15.75;74.87;95246.16;4981214;28;20259;-79
2022/09/03 03:06:55;;;;;;;4.00;3.60;;;;;;;15.73;74.70;95242.94;4979367;28;20212;-80
2022/09/03 03:09:20;;;;;;;6.10;3.55;;;;;;;15.72;74.80;95243.91;4990324;28;20249;-80
2022/09/03 03:11:45;;;;;;;4.10;3.42;;;;;;;15.74;74.82;95247.16;4976345;28;20192;-79
2022/09/03 03:14:11;;;;;;;6.20;3.63;;;;;;;15.73;75.03;95248.97;4988067;28;20234;-79
2022/09/03 03:16:36;;;;;;;4.53;3.45;;;;;;;15.74;75.10;95241.94;4984021;28;20738;-79
2022/09/03 03:19:01;;;;;;;3.53;2.90;;;;;;;15.75;74.69;95244.34;4973693;28;20199;-80
2022/09/03 03:21:27;;;;;;;4.03;3.10;;;;;;;15.78;74.67;95243.16;4977783;28;20223;-79
2022/09/03 03:23:52;;;;;;;4.03;3.30;;;;;;;15.73;74.92;95243.75;4958108;28;20199;-79
2022/09/03 03:26:19;;;;;;;4.00;3.60;;;;;;;15.72;75.25;95241.28;4975113;28;20344;-79
2022/09/03 03:28:45;;;;;;;4.45;3.47;;;;;;;15.71;74.99;95232.63;4973356;28;20216;-79
2022/09/03 03:31:13;;;;;;;3.38;3.17;;;;;;;15.72;74.94;95234.25;4981692;28;20226;-80
2022/09/03 03:33:39;;;;;;;3.97;3.50;;;;;;;15.65;75.92;95230.78;4985119;28;20575;-80
2022/09/03 03:36:05;;;;;;;3.47;3.15;;;;;;;15.65;75.80;95228.16;4987833;28;20203;-80
2022/09/03 03:38:31;;;;;;;4.30;3.30;;;;;;;15.73;76.11;95229.84;4992528;28;20190;-80
2022/09/03 03:40:56;;;;;;;3.50;3.20;;;;;;;15.71;75.95;95229.19;4990437;28;20223;-81
2022/09/03 03:43:22;;;;;;;3.63;3.33;;;;;;;15.77;75.76;95231.88;4986904;28;20575;-80
2022/09/03 03:45:59;;;;;;;3.63;3.33;;;;;;;15.76;76.06;95232.06;4984561;28;21139;-81
2022/09/03 03:48:25;;;;;;;7.57;3.40;;;;;;;15.74;76.59;95236.69;4980284;28;20220;-81
2022/09/03 03:50:51;;;;;;;3.53;3.22;;;;;;;15.68;77.08;95237.44;4960545;28;20692;-78
2022/09/03 03:53:16;;;;;;;3.65;3.35;;;;;;;15.69;76.75;95241.66;4974130;28;20207;-78
2022/09/03 03:55:41;;;;;;;3.92;3.55;;;;;;;15.68;76.89;95247.91;4974848;28;20218;-79
2022/09/03 03:58:07;;;;;;;7.47;3.97;;;;;;;15.66;77.06;95244.66;4962642;28;20204;-80
2022/09/03 04:00:36;;;;;;;3.40;3.10;;;;;;;15.80;76.34;95244.59;4965728;28;20208;-79
2022/09/03 04:03:03;;;;;;;5.00;3.75;;;;;;;15.76;76.51;95240.75;4976385;28;20258;-82
2022/09/03 04:05:28;;;;;;;3.45;3.25;;;;;;;15.83;76.29;95248.66;4987860;28;20175;-80
2022/09/03 04:07:53;;;;;;;7.05;4.13;;;;;;;15.84;76.13;95243.25;4974291;28;20234;-80
2022/09/03 04:10:19;;;;;;;4.68;4.07;;;;;;;15.84;76.37;95242.44;4990270;28;20627;-79
2022/09/03 04:12:44;;;;;;;4.07;3.78;;;;;;;15.75;77.14;95238.31;4991775;28;20287;-79
2022/09/03 04:15:09;;;;;;;5.00;3.83;;;;;;;15.79;76.77;95239.53;4982570;28;20247;-79
2022/09/03 04:17:35;;;;;;;4.97;4.00;;;;;;;15.77;76.70;95246.78;4979997;28;20209;-79
2022/09/03 04:20:00;;;;;;;4.30;4.00;;;;;;;15.89;76.54;95241.84;4959262;28;20271;-79
2022/09/03 04:22:28;;;;;;;5.80;3.72;;;;;;;15.92;76.48;95237.06;4973514;28;20283;-79
2022/09/03 04:24:53;;;;;;;3.78;3.47;;;;;;;15.95;76.22;95239.28;4958823;28;20243;-79
2022/09/03 04:27:18;;;;;;;4.10;3.80;;;;;;;15.89;76.83;95242.66;4978497;28;20200;-80
2022/09/03 04:29:44;;;;;;;5.68;3.97;;;;;;;15.95;76.27;95246.34;4965301;28;20184;-81
2022/09/03 04:34:53;;;;;;;4.20;3.63;;;;;;;15.99;76.43;95250.19;4987234;28;20266;-79
2022/09/03 04:37:19;;;;;;;4.43;3.75;;;;;;;15.95;76.95;95238.50;4991592;28;20212;-79
2022/09/03 04:39:44;;;;;;;3.92;3.63;;;;;;;16.00;76.64;95241.38;4987985;28;20218;-79
2022/09/03 04:42:09;;;;;;;3.88;3.58;;;;;;;15.99;76.70;95239.72;4973630;28;20200;-80
2022/09/03 04:44:37;;;;;;;4.15;3.72;;;;;;;15.93;77.11;95257.00;4988568;28;20188;-79
2022/09/03 04:47:03;;;;;;;4.40;4.10;;;;;;;15.91;77.36;95256.41;4978279;28;20304;-80
2022/09/03 04:49:29;;;;;;;5.40;4.07;;;;;;;15.95;76.90;95257.63;4973834;28;20191;-80
2022/09/03 04:51:54;;;;;;;4.25;3.85;;;;;;;15.94;77.08;95256.00;4990278;28;20209;-80
2022/09/03 04:54:19;;;;;;;4.38;3.65;;;;;;;15.90;77.42;95262.59;4988052;28;20196;-79
2022/09/03 04:56:45;;;;;;;4.22;3.80;;;;;;;15.90;77.51;95262.59;4985054;28;20244;-79
2022/09/03 04:59:10;;;;;;;4.97;4.15;;;;;;;15.92;77.90;95267.69;4981454;28;20185;-79
2022/09/03 05:01:37;;;;;;;4.55;4.15;;;;;;;15.94;78.12;95266.50;4978454;28;20201;-78
2022/09/03 05:04:03;;;;;;;4.90;4.50;;;;;;;15.89;78.37;95274.09;4958297;28;20601;-78
2022/09/03 05:06:30;;;;;;;4.70;4.30;;;;;;;15.98;78.04;95267.72;4971629;28;20231;-78
2022/09/03 05:08:56;;;;;;;4.40;4.10;;;;;;;15.96;78.06;95266.28;4973595;28;20220;-78
2022/09/03 05:11:22;;;;;;;4.93;4.30;;;;;;;15.94;78.03;95266.50;4977948;28;20585;-79
2022/09/03 05:13:48;;;;;;;4.10;3.80;;;;;;;15.94;78.04;95261.25;4964549;28;20644;-79
2022/09/03 05:16:14;;;;;;;4.63;4.03;;;;;;;15.96;77.93;95263.69;4967786;28;20575;-79
2022/09/03 05:18:41;;;;;;;4.55;4.15;;;;;;;16.01;77.87;95269.19;4986925;28;20176;-79
2022/09/03 05:21:12;;;;;;;5.55;4.22;;;;;;;16.02;77.85;95270.78;4989798;28;20294;-79
2022/09/03 05:23:42;;;;;;;4.28;3.88;;;;;;;16.00;78.30;95271.00;4973973;28;20207;-79
2022/09/03 05:26:10;;;;;;;5.88;3.92;;;;;;;16.15;77.73;95266.47;4975844;28;20216;-80
2022/09/03 05:28:38;;;;;;;7.05;4.22;;;;;;;16.26;77.11;95278.25;4981113;28;20219;-80
2022/09/03 05:31:07;;;;;;;5.40;4.00;;;;;;;16.35;76.81;95271.09;4984004;28;20202;-80
2022/09/03 05:33:40;;;;;;;4.43;4.05;;;;;;;16.51;76.47;95270.78;4981322;28;20271;-78
2022/09/03 05:36:08;;;;;;;3.92;3.63;;;;;;;16.58;76.22;95260.34;4986878;28;20267;-77
2022/09/03 05:38:33;;;;;;;4.80;4.07;;;;;;;16.63;75.66;95263.22;4987706;28;20203;-79
2022/09/03 05:41:01;;;;;;;4.00;3.70;;;;;;;16.62;75.64;95270.28;4986776;28;20230;-79
2022/09/03 05:43:27;;;;;;;4.60;4.10;;;;;;;16.64;75.55;95276.13;4964920;28;20184;-79
2022/09/03 05:45:59;;;;;;;5.30;4.05;;;;;;;16.67;75.75;95280.97;4971924;28;20212;-79
2022/09/03 05:48:24;;;;;;;4.30;3.90;;;;;;;16.77;75.49;95291.16;4988244;28;20184;-78
2022/09/03 05:51:07;;;;;;;4.45;4.05;;;;;;;16.77;75.62;95288.53;4971966;28;20206;-78
2022/09/03 05:53:34;;;;;;;5.50;4.50;;;;;;;16.70;75.67;95287.69;4972039;28;20191;-77
2022/09/03 05:56:16;;;;;;;4.85;4.38;;;;;;;16.55;75.95;95294.81;4962945;28;20277;-78
2022/09/03 05:58:44;;;;;;;4.53;4.13;;;;;;;16.57;75.79;95291.00;4966714;28;20188;-78
2022/09/03 06:01:16;;;;;;;4.60;3.92;;;;;;;16.53;75.68;95289.75;4985629;28;20212;-78
2022/09/03 06:03:43;;;;;;;4.57;4.18;;;;;;;16.56;75.79;95297.25;4990262;28;20648;-77
2022/09/03 06:06:08;;;;;;;4.57;4.13;;;;;;;16.66;75.69;95294.28;4990006;28;20651;-78
2022/09/03 06:08:35;;;;;;;4.45;4.07;;;;;;;16.69;76.06;95288.69;4970418;28;20191;-78
2022/09/03 06:11:02;;;;;;;3.95;3.65;;;;;;;16.70;75.57;95299.00;4983273;28;20190;-78
2022/09/03 06:13:28;;;;;;;4.40;4.10;;;;;;;16.70;75.77;95290.31;4980356;28;20258;-78
2022/09/03 06:16:01;;;;;;;4.28;3.65;;;;;;;16.76;75.26;95293.97;4976417;28;20203;-80
2022/09/03 06:18:27;;;;;;;5.25;4.30;;;;;;;16.76;74.52;95293.97;4973792;28;20203;-79
2022/09/03 06:20:54;;;;;;;4.13;3.65;;;;;;;16.79;74.20;95293.59;4972115;28;20589;-78
2022/09/03 06:23:19;;;;;;;4.55;4.15;;;;;;;16.74;74.31;95298.59;4976612;28;20187;-78
2022/09/03 06:25:44;;;;;;;4.40;4.00;;;;;;;16.79;76.04;95301.47;4979139;28;20201;-77
2022/09/03 06:28:10;;;;;;;4.97;4.10;;;;;;;16.65;76.44;95288.22;4980791;28;20561;-81
2022/09/03 06:30:36;;;;;;;4.93;4.40;;;;;;;16.80;77.77;95295.22;4985998;28;20211;-80
2022/09/03 06:33:01;;;;;;;4.95;4.13;;;;;;;16.86;77.76;95289.19;4975319;28;20212;-79
2022/09/03 06:35:26;;;;;;;4.95;4.10;;;;;;;16.92;78.17;95289.25;4973011;28;20184;-79
2022/09/03 06:37:51;;;;;;;5.07;4.57;;;;;;;16.87;79.92;95298.66;4977119;28;20181;-78
2022/09/03 06:40:21;;;;;;;4.75;4.35;;;;;;;16.83;79.19;95305.31;4983422;28;20212;-80
2022/09/03 06:43:00;;;;;;;7.28;5.20;;;;;;;16.80;79.84;95300.47;4986553;28;20184;-80
2022/09/03 06:45:26;;;;;;;4.63;4.22;;;;;;;16.81;79.26;95294.22;4989728;28;20892;-79
2022/09/03 06:47:52;;;;;;;6.40;4.43;;;;;;;16.88;80.58;95308.19;4962714;28;20271;-80
2022/09/03 06:50:18;;;;;;;4.90;4.55;;;;;;;16.96;81.27;95298.34;4976512;28;20236;-79
2022/09/03 06:52:43;;;;;;;4.72;4.32;;;;;;;17.14;82.19;95305.72;4979220;28;20219;-79
2022/09/03 06:55:08;;;;;;;5.65;4.43;;;;;;;17.33;79.22;95292.88;4983221;28;20567;-79
2022/09/03 06:57:34;;;;;;;7.28;4.03;;;;;;;17.34;77.86;95305.81;4985351;28;20201;-78
2022/09/03 07:00:01;;;;;;;5.07;4.40;;;;;;;17.47;76.32;95313.72;4989788;28;20299;-79
2022/09/03 07:02:26;;;;;;;4.68;4.28;;;;;;;17.56;76.15;95317.00;4993380;28;20211;-79
2022/09/03 07:04:51;;;;;;;5.03;4.53;;;;;;;17.56;75.24;95311.75;4992152;28;20667;-79
2022/09/03 07:07:17;;;;;;;4.78;4.43;;;;;;;17.69;74.33;95314.44;4987993;28;20212;-79
2022/09/03 07:09:42;;;;;;;4.72;4.35;;;;;;;17.64;73.94;95306.31;4983205;28;20202;-78
2022/09/03 07:12:09;;;;;;;5.30;4.82;;;;;;;17.74;74.12;95309.41;4969310;28;20453;-78
2022/09/03 07:14:35;;;;;;;4.90;4.50;;;;;;;17.85;73.55;95310.69;4990484;28;20211;-79
2022/09/03 07:17:00;;;;;;;6.35;4.35;;;;;;;17.70;72.34;95313.44;4958569;28;20212;-78
2022/09/03 07:19:25;;;;;;;4.72;4.32;;;;;;;17.83;72.05;95310.03;4976620;28;20189;-79
2022/09/03 07:21:51;;;;;;;4.93;4.47;;;;;;;17.68;73.16;95315.44;4981321;28;20243;-79
2022/09/03 07:24:17;;;;;;;8.30;4.57;;;;;;;17.87;74.08;95310.47;4983360;28;20604;-79
2022/09/03 07:26:45;;;;;;;4.18;3.78;;;;;;;18.34;70.38;95320.84;4976914;28;20277;-80
2022/09/03 07:29:10;;;;;;;4.07;3.70;;;;;;;18.58;69.82;95318.66;4988623;28;20188;-79
2022/09/03 07:31:38;;;;;;;6.45;4.45;;;;;;;18.38;68.87;95316.03;4977095;28;20656;-79
2022/09/03 07:34:05;;;;;;;4.90;4.07;;;;;;;18.45;68.41;95313.38;4975586;28;20219;-80
2022/09/03 07:36:37;;;;;;;5.50;4.50;;;;;;;18.10;70.73;95319.59;4976353;28;20212;-79
2022/09/03 07:39:03;;;;;;;4.80;4.30;;;;;;;18.34;69.36;95325.31;4975821;28;20318;-80
2022/09/03 07:41:31;;;;;;;4.50;4.20;;;;;;;18.24;69.77;95330.97;4983511;28;20291;-79
2022/09/03 07:43:58;;;;;;;5.30;4.80;;;;;;;17.91;72.28;95335.31;4977695;28;20828;-79
2022/09/03 07:46:25;;;;;;;4.90;4.50;;;;;;;18.04;69.87;95330.13;4958866;28;20208;-78
2022/09/03 07:48:53;;;;;;;4.97;4.57;;;;;;;18.34;68.82;95326.09;4960435;28;20196;-78
2022/09/03 07:51:20;;;;;;;5.00;4.50;;;;;;;18.66;68.46;95329.00;4979870;28;20632;-79
2022/09/03 07:53:46;;;;;;;4.85;4.45;;;;;;;18.58;69.99;95339.69;4971917;28;20226;-87
2022/09/03 07:56:12;;;;;;;4.45;4.05;;;;;;;18.27;69.92;95335.81;4985116;28;20235;-81
2022/09/03 07:58:38;;;;;;;7.32;4.22;;;;;;;18.46;69.32;95341.28;4974352;28;20331;-83
2022/09/03 08:01:09;;;;;;;5.20;4.70;;;;;;;18.75;68.39;95338.31;4967225;28;20310;-83
2022/09/03 08:03:35;;;;;;;4.80;4.40;;;;;;;18.26;70.58;95342.06;4978527;28;20228;-83
2022/09/03 08:06:02;;;;;;;4.47;4.07;;;;;;;18.47;70.25;95345.56;4979596;28;20330;-82
2022/09/03 08:08:27;;;;;;;4.75;4.35;;;;;;;18.48;69.36;95341.91;4984682;28;20690;-82
2022/09/03 08:10:53;;;;;;;6.53;4.30;;;;;;;18.72;69.41;95346.56;4991513;28;20306;-82
2022/09/03 08:13:18;;;;;;;4.68;4.13;;;;;;;18.83;69.29;95353.88;4980110;28;20586;-83
2022/09/03 08:15:54;;;;;;;4.45;3.95;;;;;;;18.58;69.28;95366.78;4986441;28;20577;-82
2022/09/03 08:18:19;;;;;;;6.88;4.70;;;;;;;18.45;69.50;95368.59;4968879;28;20191;-83
2022/09/03 08:20:46;;;;;;;6.07;4.80;;;;;;;18.44;69.44;95369.59;4985392;28;20212;-82
2022/09/03 08:23:11;;;;;;;5.00;4.50;;;;;;;18.38;69.80;95368.59;4982814;28;20704;-80
2022/09/03 08:25:36;;;;;;;4.80;4.40;;;;;;;18.34;70.56;95362.09;4980544;28;20209;-78
2022/09/03 08:28:03;;;;;;;5.80;4.60;;;;;;;18.57;70.63;95369.63;4961841;28;20699;-83
2022/09/03 08:30:28;;;;;;;7.90;4.40;;;;;;;18.70;69.77;95371.47;4956742;28;20177;-83
2022/09/03 08:32:54;;;;;;;4.95;4.55;;;;;;;18.62;69.23;95375.88;4973379;28;20176;-83
2022/09/03 08:35:20;;;;;;;5.22;4.72;;;;;;;18.77;69.43;95370.47;4961592;28;20192;-83
2022/09/03 08:37:48;;;;;;;5.95;4.72;;;;;;;19.16;69.11;95381.97;4991053;28;20234;-83
2022/09/03 08:40:13;;;;;;;5.65;5.15;;;;;;;18.93;68.54;95379.78;4982857;28;20215;-83
2022/09/03 08:42:51;;;;;;;7.60;5.45;;;;;;;18.74;68.96;95384.03;4971817;28;20264;-83
2022/09/03 08:45:18;;;;;;;6.75;5.80;;;;;;;18.38;70.71;95384.38;4990588;28;20195;-82
2022/09/03 08:47:50;;;;;;;5.70;5.10;;;;;;;18.39;70.24;95381.53;4984121;28;20601;-81
2022/09/03 08:50:34;;;;;;;6.95;5.20;;;;;;;18.44;69.97;95382.75;4989711;28;20180;-78
2022/09/03 08:53:14;;;;;;;7.90;4.95;;;;;;;18.75;68.16;95385.66;4985107;28;20195;-80
2022/09/03 08:55:57;;;;;;;4.82;4.43;;;;;;;19.15;68.46;95393.50;4983318;28;20245;-79
2022/09/03 08:58:25;;;;;;;6.20;5.00;;;;;;;19.06;67.81;95397.38;4987275;28;20623;-78
2022/09/03 09:01:16;;;;;;;4.80;4.40;;;;;;;19.14;68.40;95395.34;4989454;28;20266;-78
2022/09/03 09:04:13;;;;;;;6.32;4.55;;;;;;;19.71;66.83;95391.22;4968480;28;20196;-78
2022/09/03 09:06:46;;;;;;;5.13;4.70;;;;;;;20.34;63.08;95398.41;4963939;28;20534;-78
2022/09/03 09:09:19;;;;;;;7.55;5.72;;;;;;;20.71;64.28;95398.63;4984646;28;20176;-78
2022/09/03 09:12:03;;;;;;;5.70;5.03;;;;;;;20.59;63.66;95399.31;4974978;28;20279;-78
2022/09/03 09:14:53;;;;;;;6.43;4.20;;;;;;;20.55;63.44;95390.19;4972038;28;20184;-78
2022/09/03 09:17:40;;;;;;;6.30;4.20;;;;;;;20.50;63.32;95389.25;4985910;28;20204;-78
2022/09/03 09:20:18;;;;;;;5.18;4.68;;;;;;;20.22;65.21;95392.19;4984229;28;20212;-78
2022/09/03 09:22:51;;;;;;;6.90;4.25;;;;;;;20.28;63.31;95399.25;4966604;28;20570;-78
2022/09/03 09:25:21;;;;;;;4.25;3.95;;;;;;;19.65;63.48;95391.22;4978916;28;20629;-79
2022/09/03 09:27:51;;;;;;;5.13;4.63;;;;;;;19.48;65.85;95386.38;4972670;28;20751;-82
2022/09/03 09:30:17;;;;;;;4.35;4.00;;;;;;;19.13;68.31;95385.81;4989839;28;20177;-80
2022/09/03 09:32:42;;;;;;;5.88;4.43;;;;;;;19.63;66.24;95385.34;4973337;28;20207;-81
2022/09/03 09:35:09;;;;;;;4.90;4.40;;;;;;;20.11;65.79;95379.69;4982741;28;20271;-82
2022/09/03 09:37:45;;;;;;;4.53;4.13;;;;;;;20.03;64.16;95378.91;4982063;28;20336;-80
2022/09/03 09:40:10;;;;;;;5.32;4.82;;;;;;;19.64;65.97;95376.44;4961573;28;20211;-79
2022/09/03 09:42:35;;;;;;;6.65;4.88;;;;;;;19.91;69.56;95391.13;4978972;28;20836;-78
2022/09/03 09:45:09;;;;;;;5.60;5.10;;;;;;;20.83;66.63;95391.63;4973006;28;20193;-78
2022/09/03 09:47:38;;;;;;;5.50;4.93;;;;;;;20.20;68.74;95388.97;4981704;28;20238;-79
2022/09/03 09:50:16;;;;;;;4.95;4.55;;;;;;;20.69;68.22;95398.03;4961211;28;20321;-79
2022/09/03 09:52:42;;;;;;;5.97;4.90;;;;;;;20.88;66.20;95402.34;4965112;28;20325;-78
2022/09/03 09:55:13;;;;;;;7.65;5.05;;;;;;;20.71;65.10;95398.63;4966667;28;20231;-79
2022/09/03 09:57:39;;;;;;;5.22;4.50;;;;;;;20.47;66.17;95394.91;4954736;28;20755;-78
2022/09/03 10:00:09;;;;;;;5.72;4.70;;;;;;;20.67;64.23;95390.31;4959882;28;20587;-78
2022/09/03 10:02:36;;;;;;;4.45;4.05;;;;;;;20.50;66.97;95384.75;4951378;28;20193;-77
2022/09/03 10:05:26;;;;;;;4.90;4.07;;;;;;;20.81;64.24;95386.56;4951790;28;20189;-78
2022/09/03 10:08:18;;;;;;;4.60;3.90;;;;;;;20.47;64.28;95392.28;4949249;28;20185;-76
2022/09/03 10:10:48;;;;;;;5.50;4.38;;;;;;;20.53;63.85;95378.25;4951387;28;20234;-77
2022/09/03 10:13:18;;;;;;;4.18;3.88;;;;;;;21.15;62.72;95385.25;4966653;28;20224;-76
2022/09/03 10:15:50;;;;;;;5.93;3.97;;;;;;;21.26;61.50;95389.00;4963140;28;20635;-77
2022/09/03 10:18:29;;;;;;;6.15;3.78;;;;;;;21.82;60.34;95381.94;4952848;28;20243;-78
2022/09/03 10:21:09;;;;;;;4.43;4.13;;;;;;;22.03;61.23;95365.63;4961484;28;20210;-77
2022/09/03 10:23:58;;;;;;;4.82;3.97;;;;;;;22.39;60.95;95377.19;4954323;28;20189;-77
2022/09/03 10:26:29;;;;;;;4.15;3.28;;;;;;;22.03;60.02;95365.63;4928448;28;21149;-77
2022/09/03 10:29:04;;;;;;;4.85;3.80;;;;;;;22.74;56.29;95367.50;4965463;28;20192;-78
2022/09/03 10:31:30;;;;;;;4.05;3.70;;;;;;;22.52;57.93;95356.63;4967632;28;20184;-77
2022/09/03 10:34:17;;;;;;;4.43;4.00;;;;;;;22.26;57.61;95363.13;4970586;28;20193;-77
2022/09/03 10:36:54;;;;;;;3.65;3.35;;;;;;;22.09;57.02;95346.28;4969992;28;20780;-79
2022/09/03 10:39:57;;;;;;;5.40;3.35;;;;;;;22.09;58.79;95350.75;4969709;28;20195;-78
2022/09/03 10:42:44;;;;;;;3.65;3.35;;;;;;;22.33;58.23;95350.59;4966867;28;20203;-78
2022/09/03 10:45:22;;;;;;;3.58;3.28;;;;;;;21.75;60.31;95351.13;4968755;28;20185;-79
2022/09/03 10:48:03;;;;;;;3.90;3.53;;;;;;;22.45;57.80;95355.13;4967190;28;20207;-78
2022/09/03 10:50:51;;;;;;;4.57;3.42;;;;;;;22.59;58.05;95356.53;4969088;28;20180;-79
2022/09/03 10:53:38;;;;;;;3.75;3.33;;;;;;;22.74;56.81;95359.56;4967274;28;20197;-79
2022/09/03 10:56:24;;;;;;;5.50;3.35;;;;;;;22.50;56.76;95358.69;4954990;28;20239;-79
2022/09/03 10:58:49;;;;;;;3.85;2.92;;;;;;;22.94;57.29;95353.97;4961160;28;20205;-79
2022/09/03 11:01:36;;;;;;;3.70;3.40;;;;;;;23.09;55.69;95361.47;4970805;28;20208;-80
2022/09/03 11:04:26;;;;;;;3.25;3.03;;;;;;;23.54;53.73;95355.56;4969561;28;20657;-79
2022/09/03 11:06:55;;;;;;;3.58;3.25;;;;;;;22.93;54.26;95354.19;4967293;28;20711;-80
2022/09/03 11:09:25;;;;;;;3.60;3.30;;;;;;;23.50;53.73;95344.63;4973734;28;20180;-80
2022/09/03 11:11:58;;;;;;;3.33;3.10;;;;;;;23.52;52.18;95347.06;4956445;28;20188;-79
2022/09/03 11:14:37;;;;;;;4.45;3.35;;;;;;;22.97;55.03;95350.03;4968333;28;20192;-79
2022/09/03 11:17:08;;;;;;;3.45;3.20;;;;;;;22.49;56.47;95348.34;4965255;28;20231;-79
2022/09/03 11:19:40;;;;;;;3.78;3.47;;;;;;;22.59;55.01;95348.59;4949399;28;20184;-80
2022/09/03 11:22:06;;;;;;;3.90;3.50;;;;;;;22.64;55.22;95348.72;4965561;28;20197;-79
2022/09/03 11:24:32;;;;;;;3.78;3.47;;;;;;;22.79;55.82;95349.09;4954235;28;20193;-79
2022/09/03 11:27:09;;;;;;;4.22;3.85;;;;;;;22.90;55.69;95342.22;4956158;28;20208;-80
2022/09/03 11:29:50;;;;;;;3.85;3.08;;;;;;;23.07;56.37;95347.66;4971085;28;20189;-78
2022/09/03 11:32:23;;;;;;;3.63;3.33;;;;;;;22.97;55.12;95344.75;4962663;28;20224;-78
2022/09/03 11:34:50;;;;;;;3.60;3.30;;;;;;;23.11;53.82;95349.59;4958190;28;20189;-79
2022/09/03 11:37:20;;;;;;;3.40;3.10;;;;;;;22.90;54.18;95344.88;4957528;28;20237;-79
2022/09/03 11:40:11;;;;;;;3.60;3.30;;;;;;;21.84;57.04;95342.91;4969706;28;20199;-81
2022/09/03 11:42:41;;;;;;;3.33;3.05;;;;;;;22.36;55.96;95352.00;4969095;28;20518;-79
2022/09/03 11:45:31;;;;;;;4.40;3.50;;;;;;;22.00;57.03;95345.75;4954404;28;20220;-79
2022/09/03 11:47:57;;;;;;;4.47;3.30;;;;;;;21.70;57.20;95344.88;4962056;28;20243;-79
2022/09/03 11:50:24;;;;;;;3.72;3.25;;;;;;;21.86;57.71;95346.94;4967373;28;20636;-80
2022/09/03 11:52:52;;;;;;;3.38;3.13;;;;;;;21.91;57.64;95341.81;4970515;28;20251;-79
2022/09/03 11:55:29;;;;;;;3.58;3.28;;;;;;;21.79;58.17;95343.56;4956027;28;20656;-79